createdAt,value
2018-02-14T00:00:01.434Z,-5.40
2018-02-14T00:02:29.650Z,-5.40
2018-02-14T00:04:57.810Z,-5.40
2018-02-14T00:07:25.960Z,-5.40
2018-02-14T00:10:01.165Z,-5.50
2018-02-14T00:12:29.309Z,-5.60
2018-02-14T00:14:57.473Z,-5.50
2018-02-14T00:17:25.629Z,-5.60
2018-02-14T00:19:55.509Z,-5.60
2018-02-14T00:22:23.640Z,-5.70
2018-02-14T00:24:51.788Z,-5.60
2018-02-14T00:27:20.684Z,-5.70
2018-02-14T00:29:54.349Z,-5.70
2018-02-14T00:32:22.476Z,-5.70
2018-02-14T00:34:50.608Z,-5.70
2018-02-14T00:37:18.754Z,-5.70
2018-02-14T00:39:47.833Z,-5.80
2018-02-14T00:42:15.994Z,-5.80
2018-02-14T00:44:44.125Z,-5.90
2018-02-14T00:47:12.284Z,-6.00
2018-02-14T00:49:43.882Z,-5.90
2018-02-14T00:52:12.807Z,-5.90
2018-02-14T00:54:40.942Z,-5.90
2018-02-14T00:57:09.854Z,-5.90
2018-02-14T00:59:38.001Z,-5.90
2018-02-14T01:02:06.929Z,-6.00
2018-02-14T01:04:35.065Z,-6.00
2018-02-14T01:07:03.988Z,-6.00
2018-02-14T01:09:33.077Z,-6.10
2018-02-14T01:12:02.894Z,-5.90
2018-02-14T01:14:31.037Z,-6.00
2018-02-14T01:16:59.948Z,-6.00
2018-02-14T01:19:29.069Z,-6.00
2018-02-14T01:21:57.229Z,-6.00
2018-02-14T01:24:25.377Z,-6.10
2018-02-14T01:26:53.561Z,-6.10
2018-02-14T01:29:21.724Z,-6.10
2018-02-14T01:31:50.615Z,-6.10
2018-02-14T01:34:18.772Z,-6.10
2018-02-14T01:36:47.673Z,-6.10
2018-02-14T01:39:16.601Z,-6.30
2018-02-14T01:41:48.969Z,-6.30
2018-02-14T01:44:17.121Z,-6.20
2018-02-14T01:46:45.262Z,-6.20
2018-02-14T01:49:13.412Z,-6.20
2018-02-14T01:51:41.560Z,-6.20
2018-02-14T01:54:09.724Z,-6.30
2018-02-14T01:56:37.861Z,-6.30
2018-02-14T01:59:06.780Z,-6.30
2018-02-14T02:01:35.901Z,-6.30
2018-02-14T02:04:04.055Z,-6.30
2018-02-14T02:06:32.203Z,-6.30
2018-02-14T02:09:00.337Z,-6.30
2018-02-14T02:11:29.377Z,-6.30
2018-02-14T02:13:57.514Z,-6.30
2018-02-14T02:16:25.635Z,-6.30
2018-02-14T02:18:53.779Z,-6.60
2018-02-14T02:21:27.321Z,-6.40
2018-02-14T02:23:55.479Z,-6.40
2018-02-14T02:26:23.646Z,-6.50
2018-02-14T02:28:51.797Z,-6.50
2018-02-14T02:31:22.669Z,-6.50
2018-02-14T02:33:50.826Z,-6.50
2018-02-14T02:36:18.972Z,-6.50
2018-02-14T02:38:47.109Z,-6.60
2018-02-14T02:41:15.277Z,-6.60
2018-02-14T02:43:43.424Z,-6.60
2018-02-14T02:46:11.593Z,-6.60
2018-02-14T02:48:39.742Z,-6.60
2018-02-14T02:51:09.624Z,-6.70
2018-02-14T02:53:37.786Z,-6.70
2018-02-14T02:56:05.944Z,-6.70
2018-02-14T02:58:34.088Z,-6.70
2018-02-14T03:01:08.182Z,-6.70
2018-02-14T03:03:36.309Z,-6.70
2018-02-14T03:06:04.468Z,-6.70
2018-02-14T03:08:32.593Z,-6.80
2018-02-14T03:11:00.761Z,-6.80
2018-02-14T03:13:28.904Z,-6.80
2018-02-14T03:15:57.063Z,-6.90
2018-02-14T03:18:25.197Z,-6.90
2018-02-14T03:20:54.117Z,-6.90
2018-02-14T03:23:22.256Z,-6.90
2018-02-14T03:25:50.408Z,-6.90
2018-02-14T03:28:18.549Z,-6.90
2018-02-14T03:30:49.713Z,-6.90
2018-02-14T03:33:17.858Z,-6.90
2018-02-14T03:35:46.017Z,-6.90
2018-02-14T03:38:14.157Z,-6.90
2018-02-14T03:40:42.312Z,-6.90
2018-02-14T03:43:10.446Z,-6.90
2018-02-14T03:45:38.616Z,-7.00
2018-02-14T03:48:06.754Z,-6.90
2018-02-14T03:50:34.925Z,-7.00
2018-02-14T03:53:03.096Z,-7.00
2018-02-14T03:55:31.285Z,-7.00
2018-02-14T03:58:00.193Z,-7.10
2018-02-14T04:00:29.432Z,-7.10
2018-02-14T04:02:57.582Z,-7.10
2018-02-14T04:05:25.717Z,-7.20
2018-02-14T04:07:54.646Z,-7.10
2018-02-14T04:10:22.777Z,-7.20
2018-02-14T04:12:50.977Z,-7.20
2018-02-14T04:15:19.117Z,-7.20
2018-02-14T04:17:47.279Z,-7.20
2018-02-14T04:20:15.417Z,-7.20
2018-02-14T04:22:43.573Z,-7.20
2018-02-14T04:25:11.709Z,-7.20
2018-02-14T04:27:39.867Z,-7.20
2018-02-14T04:30:09.949Z,-7.30
2018-02-14T04:32:38.121Z,-7.30
2018-02-14T04:35:06.258Z,-7.30
2018-02-14T04:37:35.181Z,-7.30
2018-02-14T04:40:05.296Z,-7.40
2018-02-14T04:42:33.453Z,-7.30
2018-02-14T04:45:02.357Z,-7.30
2018-02-14T04:47:30.561Z,-7.30
2018-02-14T04:49:59.720Z,-7.30
2018-02-14T04:52:27.917Z,-7.30
2018-02-14T04:54:56.053Z,-7.30
2018-02-14T04:57:24.957Z,-7.40
2018-02-14T04:59:54.093Z,-7.40
2018-02-14T05:02:22.225Z,-7.40
2018-02-14T05:04:50.376Z,-7.40
2018-02-14T05:07:18.521Z,-7.50
2018-02-14T05:09:51.406Z,-7.40
2018-02-14T05:12:19.542Z,-7.40
2018-02-14T05:14:47.702Z,-7.40
2018-02-14T05:17:15.843Z,-7.40
2018-02-14T05:19:44.001Z,-7.40
2018-02-14T05:22:12.138Z,-7.40
2018-02-14T05:24:40.305Z,-7.40
2018-02-14T05:27:08.450Z,-7.40
2018-02-14T05:29:37.377Z,-7.50
2018-02-14T05:32:05.513Z,-7.50
2018-02-14T05:34:34.450Z,-7.50
2018-02-14T05:37:02.589Z,-7.50
2018-02-14T05:39:31.566Z,-7.60
2018-02-14T05:42:00.485Z,-7.60
2018-02-14T05:44:28.629Z,-7.70
2018-02-14T05:46:57.549Z,-7.70
2018-02-14T05:49:25.707Z,-7.70
2018-02-14T05:51:54.665Z,-7.70
2018-02-14T05:54:22.812Z,-7.70
2018-02-14T05:56:51.797Z,-7.70
2018-02-14T05:59:19.937Z,-7.70
2018-02-14T06:01:52.567Z,-7.80
2018-02-14T06:04:20.805Z,-7.80
2018-02-14T06:06:48.991Z,-7.70
2018-02-14T06:09:17.120Z,-7.70
2018-02-14T06:11:45.285Z,-7.80
2018-02-14T06:14:13.421Z,-7.80
2018-02-14T06:16:41.573Z,-7.80
2018-02-14T06:19:09.710Z,-7.80
2018-02-14T06:21:39.824Z,-7.80
2018-02-14T06:24:07.998Z,-7.80
2018-02-14T06:26:36.163Z,-7.80
2018-02-14T06:29:04.308Z,-7.80
2018-02-14T06:31:32.470Z,-7.80
2018-02-14T06:34:00.604Z,-7.80
2018-02-14T06:36:28.882Z,-7.80
2018-02-14T06:38:57.789Z,-7.80
2018-02-14T06:41:27.932Z,-7.90
2018-02-14T06:43:56.086Z,-7.90
2018-02-14T06:46:24.271Z,-7.90
2018-02-14T06:48:52.438Z,-7.90
2018-02-14T06:51:20.640Z,-7.90
2018-02-14T06:53:48.859Z,-7.80
2018-02-14T06:56:18.033Z,-7.70
2018-02-14T06:58:46.288Z,-7.70
2018-02-14T07:01:15.385Z,-7.70
2018-02-14T07:03:43.638Z,-7.60
2018-02-14T07:06:11.809Z,-7.60
2018-02-14T07:08:40.026Z,-7.50
2018-02-14T07:11:08.225Z,-7.60
2018-02-14T07:13:37.165Z,-7.70
2018-02-14T07:16:05.381Z,-7.70
2018-02-14T07:18:34.426Z,-7.60
2018-02-14T07:21:03.594Z,-7.60
2018-02-14T07:23:31.829Z,-7.40
2018-02-14T07:26:00.100Z,-7.30
2018-02-14T07:28:28.333Z,-7.10
2018-02-14T07:30:56.491Z,-7.10
2018-02-14T07:33:24.724Z,-7.00
2018-02-14T07:35:52.897Z,-6.90
2018-02-14T07:38:21.297Z,-6.90
2018-02-14T07:40:53.228Z,-6.90
2018-02-14T07:43:21.385Z,-6.90
2018-02-14T07:45:49.524Z,-6.80
2018-02-14T07:48:17.689Z,-6.60
2018-02-14T07:50:51.660Z,-6.40
2018-02-14T07:53:19.861Z,-6.40
2018-02-14T07:55:48.011Z,-6.40
2018-02-14T07:58:16.168Z,-6.30
2018-02-14T08:00:47.928Z,-6.30
2018-02-14T08:03:16.060Z,-6.20
2018-02-14T08:05:44.994Z,-5.90
2018-02-14T08:08:13.151Z,-5.90
2018-02-14T08:10:41.340Z,-5.90
2018-02-14T08:13:09.513Z,-5.70
2018-02-14T08:15:37.706Z,-5.50
2018-02-14T08:18:05.913Z,-5.50
2018-02-14T08:20:34.898Z,-5.20
2018-02-14T08:23:03.122Z,-5.30
2018-02-14T08:25:31.357Z,-5.10
2018-02-14T08:27:59.549Z,-5.00
2018-02-14T08:30:28.517Z,-4.80
2018-02-14T08:32:57.434Z,-4.70
2018-02-14T08:35:25.601Z,-4.80
2018-02-14T08:37:53.782Z,-4.60
2018-02-14T08:40:29.442Z,-4.50
2018-02-14T08:42:57.651Z,-4.40
2018-02-14T08:45:25.845Z,-4.40
2018-02-14T08:47:54.758Z,-4.10
2018-02-14T08:50:23.917Z,-4.10
2018-02-14T08:52:52.061Z,-4.10
2018-02-14T08:55:20.212Z,-3.90
2018-02-14T08:57:48.349Z,-3.90
2018-02-14T09:00:22.637Z,-3.60
2018-02-14T09:02:50.802Z,-3.60
2018-02-14T09:05:18.959Z,-3.50
2018-02-14T09:07:47.102Z,-3.50
2018-02-14T09:10:21.673Z,-3.30
2018-02-14T09:12:49.818Z,-3.30
2018-02-14T09:15:17.982Z,-3.10
2018-02-14T09:17:46.123Z,-3.00
2018-02-14T09:20:21.950Z,-2.90
2018-02-14T09:22:50.089Z,-2.80
2018-02-14T09:25:18.268Z,-2.70
2018-02-14T09:27:46.408Z,-2.60
2018-02-14T09:30:16.266Z,-1.90
2018-02-14T09:32:44.430Z,-1.90
2018-02-14T09:35:12.568Z,-1.40
2018-02-14T09:37:41.492Z,-0.90
2018-02-14T09:40:18.796Z,-0.90
2018-02-14T09:42:46.957Z,-1.20
2018-02-14T09:45:15.094Z,-0.80
2018-02-14T09:47:44.056Z,-0.20
2018-02-14T09:50:12.210Z,-0.20
2018-02-14T09:52:40.441Z,0.00
2018-02-14T09:55:08.682Z,0.20
2018-02-14T09:57:36.878Z,0.40
2018-02-14T10:00:05.901Z,0.70
2018-02-14T10:02:34.890Z,0.80
2018-02-14T10:05:03.053Z,0.80
2018-02-14T10:07:31.206Z,1.10
2018-02-14T10:10:01.069Z,1.60
2018-02-14T10:12:29.220Z,1.60
2018-02-14T10:14:57.353Z,1.60
2018-02-14T10:17:25.508Z,1.70
2018-02-14T10:19:53.681Z,1.90
2018-02-14T10:22:21.917Z,1.60
2018-02-14T10:24:50.077Z,1.90
2018-02-14T10:27:18.973Z,2.90
2018-02-14T10:29:59.574Z,2.80
2018-02-14T10:32:27.709Z,2.90
2018-02-14T10:34:55.892Z,2.80
2018-02-14T10:37:24.029Z,3.00
2018-02-14T10:39:52.185Z,3.20
2018-02-14T10:42:20.318Z,3.70
2018-02-14T10:44:48.473Z,3.40
2018-02-14T10:47:16.602Z,3.60
2018-02-14T10:49:46.708Z,3.80
2018-02-14T10:52:14.849Z,4.10
2018-02-14T10:54:43.001Z,4.50
2018-02-14T10:57:11.905Z,5.20
2018-02-14T10:59:42.065Z,5.10
2018-02-14T11:02:10.955Z,5.00
2018-02-14T11:04:44.721Z,6.00
2018-02-14T11:07:18.809Z,5.30
2018-02-14T11:09:52.777Z,6.20
2018-02-14T11:12:20.978Z,6.10
2018-02-14T11:14:49.953Z,6.50
2018-02-14T11:17:18.145Z,6.40
2018-02-14T11:19:46.408Z,7.10
2018-02-14T11:22:14.581Z,7.60
2018-02-14T11:24:43.697Z,6.60
2018-02-14T11:27:12.641Z,7.10
2018-02-14T11:29:42.397Z,5.60
2018-02-14T11:32:11.369Z,6.50
2018-02-14T11:34:39.542Z,6.40
2018-02-14T11:37:07.746Z,7.00
2018-02-14T11:39:36.689Z,8.60
2018-02-14T11:42:12.427Z,8.60
2018-02-14T11:44:41.610Z,7.60
2018-02-14T11:47:09.845Z,7.60
2018-02-14T11:49:38.072Z,8.60
2018-02-14T11:52:06.216Z,8.30
2018-02-14T11:54:35.122Z,9.70
2018-02-14T11:57:03.340Z,9.60
2018-02-14T11:59:31.493Z,9.00
2018-02-14T12:01:59.656Z,10.00
2018-02-14T12:04:27.797Z,8.30
2018-02-14T12:06:56.774Z,9.10
2018-02-14T12:09:24.950Z,9.10
2018-02-14T12:11:53.100Z,9.50
2018-02-14T12:14:21.256Z,10.30
2018-02-14T12:16:49.461Z,9.10
2018-02-14T12:19:17.605Z,8.90
2018-02-14T12:21:49.665Z,9.70
2018-02-14T12:24:21.024Z,9.60
2018-02-14T12:26:49.185Z,11.00
2018-02-14T12:29:17.321Z,11.30
2018-02-14T12:31:48.216Z,10.10
2018-02-14T12:34:16.349Z,10.10
2018-02-14T12:36:44.569Z,10.20
2018-02-14T12:39:12.715Z,10.40
2018-02-14T12:41:46.227Z,9.80
2018-02-14T12:44:14.478Z,8.10
2018-02-14T12:46:42.625Z,8.80
2018-02-14T12:49:11.522Z,9.00
2018-02-14T12:51:39.678Z,9.00
2018-02-14T12:54:08.574Z,9.60
2018-02-14T12:56:37.493Z,9.60
2018-02-14T12:59:05.697Z,9.50
2018-02-14T13:01:34.925Z,9.80
2018-02-14T13:04:03.065Z,9.80
2018-02-14T13:06:31.278Z,10.90
2018-02-14T13:09:00.188Z,10.80
2018-02-14T13:11:28.329Z,10.80
2018-02-14T13:13:56.502Z,11.10
2018-02-14T13:16:24.642Z,10.30
2018-02-14T13:18:52.817Z,11.10
2018-02-14T13:21:20.974Z,11.90
2018-02-14T13:23:49.137Z,12.20
2018-02-14T13:26:17.306Z,10.50
2018-02-14T13:28:45.479Z,9.10
2018-02-14T13:31:28.212Z,11.40
2018-02-14T13:33:57.151Z,10.50
2018-02-14T13:36:25.293Z,10.50
2018-02-14T13:38:53.465Z,10.60
2018-02-14T13:41:26.289Z,11.90
2018-02-14T13:43:54.456Z,11.90
2018-02-14T13:46:23.501Z,10.70
2018-02-14T13:48:51.874Z,10.00
2018-02-14T13:51:21.129Z,10.50
2018-02-14T13:53:50.157Z,10.50
2018-02-14T13:56:18.293Z,9.20
2018-02-14T13:58:46.490Z,9.60
2018-02-14T14:01:15.605Z,11.80
2018-02-14T14:03:43.812Z,13.10
2018-02-14T14:06:11.984Z,13.20
2018-02-14T14:08:40.717Z,12.90
2018-02-14T14:11:17.640Z,13.90
2018-02-14T14:13:45.794Z,13.90
2018-02-14T14:16:13.993Z,14.10
2018-02-14T14:18:42.740Z,14.50
2018-02-14T14:21:14.723Z,13.50
2018-02-14T14:23:42.890Z,12.70
2018-02-14T14:26:11.025Z,12.70
2018-02-14T14:28:39.958Z,10.80
2018-02-14T14:31:08.098Z,10.70
2018-02-14T14:33:36.282Z,10.10
2018-02-14T14:36:04.422Z,11.30
2018-02-14T14:38:32.641Z,12.50
2018-02-14T14:41:03.807Z,13.50
2018-02-14T14:43:31.966Z,14.30
2018-02-14T14:46:00.201Z,14.50
2018-02-14T14:48:28.382Z,12.50
2018-02-14T14:51:21.369Z,13.20
2018-02-14T14:53:49.509Z,13.20
2018-02-14T14:56:18.434Z,13.40
2018-02-14T14:58:46.586Z,13.40
2018-02-14T15:01:16.652Z,13.30
2018-02-14T15:03:44.784Z,14.20
2018-02-14T15:06:12.936Z,14.30
2018-02-14T15:08:41.837Z,13.20
2018-02-14T15:11:12.021Z,13.20
2018-02-14T15:13:40.154Z,13.30
2018-02-14T15:16:08.305Z,12.50
2018-02-14T15:18:37.214Z,13.40
2018-02-14T15:21:06.354Z,13.40
2018-02-14T15:23:34.893Z,13.70
2018-02-14T15:26:03.060Z,13.60
2018-02-14T15:28:31.197Z,13.60
2018-02-14T15:30:59.368Z,11.70
2018-02-14T15:33:28.293Z,13.30
2018-02-14T15:35:56.445Z,13.30
2018-02-14T15:38:25.345Z,12.00
2018-02-14T15:41:01.754Z,10.70
2018-02-14T15:43:29.897Z,10.70
2018-02-14T15:45:58.091Z,10.30
2018-02-14T15:48:26.232Z,10.30
2018-02-14T15:51:00.798Z,11.10
2018-02-14T15:53:28.936Z,11.00
2018-02-14T15:55:57.088Z,10.30
2018-02-14T15:58:25.996Z,10.10
2018-02-14T16:01:01.576Z,10.10
2018-02-14T16:03:29.705Z,9.80
2018-02-14T16:05:58.666Z,9.30
2018-02-14T16:08:26.809Z,9.30
2018-02-14T16:10:54.937Z,8.80
2018-02-14T16:13:23.854Z,7.80
2018-02-14T16:15:52.001Z,7.80
2018-02-14T16:18:20.918Z,6.60
2018-02-14T16:20:49.045Z,6.60
2018-02-14T16:23:17.190Z,6.00
2018-02-14T16:25:45.318Z,5.50
2018-02-14T16:28:13.468Z,5.00
2018-02-14T16:30:41.594Z,4.70
2018-02-14T16:33:09.732Z,4.40
2018-02-14T16:35:38.616Z,3.80
2018-02-14T16:38:07.541Z,3.40
2018-02-14T16:40:37.677Z,3.40
2018-02-14T16:43:05.821Z,3.10
2018-02-14T16:45:33.981Z,2.40
2018-02-14T16:48:02.892Z,1.80
2018-02-14T16:50:31.025Z,1.70
2018-02-14T16:52:59.168Z,1.60
2018-02-14T16:55:27.290Z,1.60
2018-02-14T16:57:56.209Z,1.60
2018-02-14T17:00:24.341Z,1.50
2018-02-14T17:02:52.494Z,1.50
2018-02-14T17:05:20.627Z,1.40
2018-02-14T17:07:48.786Z,1.40
2018-02-14T17:10:16.937Z,1.30
2018-02-14T17:12:49.101Z,0.80
2018-02-14T17:15:18.098Z,0.70
2018-02-14T17:17:47.145Z,0.50
2018-02-14T17:20:15.329Z,0.50
2018-02-14T17:22:43.489Z,0.40
2018-02-14T17:25:11.734Z,0.20
2018-02-14T17:27:39.909Z,0.30
2018-02-14T17:30:08.185Z,0.30
2018-02-14T17:32:44.357Z,0.20
2018-02-14T17:35:12.512Z,0.20
2018-02-14T17:37:41.413Z,-0.10
2018-02-14T17:40:09.563Z,-0.10
2018-02-14T17:42:37.707Z,-0.30
2018-02-14T17:45:05.885Z,-0.20
2018-02-14T17:47:34.113Z,-0.20
2018-02-14T17:50:02.274Z,-0.10
2018-02-14T17:52:30.421Z,-0.10
2018-02-14T17:54:58.582Z,-0.20
2018-02-14T17:57:26.725Z,-0.20
2018-02-14T17:59:54.876Z,-0.30
2018-02-14T18:02:23.013Z,-0.50
2018-02-14T18:04:51.217Z,-0.80
2018-02-14T18:07:19.356Z,-0.70
2018-02-14T18:09:47.513Z,-0.80
2018-02-14T18:12:15.649Z,-1.00
2018-02-14T18:14:43.809Z,-0.90
2018-02-14T18:17:11.964Z,-1.00
2018-02-14T18:19:40.130Z,-1.00
2018-02-14T18:22:09.980Z,-1.20
2018-02-14T18:24:38.129Z,-1.30
2018-02-14T18:27:07.035Z,-1.30
2018-02-14T18:29:35.224Z,-1.30
2018-02-14T18:32:06.813Z,-1.40
2018-02-14T18:34:35.001Z,-1.50
2018-02-14T18:37:03.129Z,-1.50
2018-02-14T18:39:31.266Z,-1.50
2018-02-14T18:42:01.125Z,-1.60
2018-02-14T18:44:29.256Z,-1.60
2018-02-14T18:46:57.408Z,-1.50
2018-02-14T18:49:26.309Z,-1.70
2018-02-14T18:51:57.197Z,-1.80
2018-02-14T18:54:25.421Z,-1.80
2018-02-14T18:56:54.342Z,-1.80
2018-02-14T18:59:22.505Z,-1.80
2018-02-14T19:02:04.605Z,-1.90
2018-02-14T19:04:32.742Z,-1.90
2018-02-14T19:07:01.679Z,-1.90
2018-02-14T19:09:29.812Z,-1.90
2018-02-14T19:12:05.740Z,-2.00
2018-02-14T19:14:33.919Z,-2.10
2018-02-14T19:17:02.065Z,-2.20
2018-02-14T19:19:30.205Z,-2.20
2018-02-14T19:21:58.356Z,-2.10
2018-02-14T19:24:26.493Z,-2.30
2018-02-14T19:26:54.657Z,-2.30
2018-02-14T19:29:22.797Z,-2.20
2018-02-14T19:31:57.478Z,-2.20
2018-02-14T19:34:25.617Z,-2.20
2018-02-14T19:36:53.822Z,-2.40
2018-02-14T19:39:21.965Z,-2.40
2018-02-14T19:41:51.089Z,-2.40
2018-02-14T19:44:19.229Z,-2.40
2018-02-14T19:46:47.388Z,-2.50
2018-02-14T19:49:15.537Z,-2.50
2018-02-14T19:51:55.078Z,-2.80
2018-02-14T19:54:23.993Z,-2.80
2018-02-14T19:56:52.169Z,-2.80
2018-02-14T19:59:20.316Z,-2.90
2018-02-14T20:01:48.444Z,-2.90
2018-02-14T20:04:16.597Z,-3.00
2018-02-14T20:06:44.745Z,-3.00
2018-02-14T20:09:12.909Z,-3.10
2018-02-14T20:11:45.433Z,-3.20
2018-02-14T20:14:13.592Z,-3.20
2018-02-14T20:16:41.753Z,-3.30
2018-02-14T20:19:09.920Z,-3.30
2018-02-14T20:21:43.449Z,-3.40
2018-02-14T20:24:11.615Z,-3.50
2018-02-14T20:26:39.757Z,-3.50
2018-02-14T20:29:07.940Z,-3.50
2018-02-14T20:31:36.877Z,-3.50
2018-02-14T20:34:05.049Z,-3.50
2018-02-14T20:36:33.196Z,-3.60
2018-02-14T20:39:01.353Z,-3.50
2018-02-14T20:41:30.258Z,-3.50
2018-02-14T20:43:58.412Z,-3.60
2018-02-14T20:46:27.313Z,-3.70
2018-02-14T20:48:55.470Z,-3.70
2018-02-14T20:51:27.589Z,-3.60
2018-02-14T20:53:56.017Z,-3.60
2018-02-14T20:56:24.946Z,-3.90
2018-02-14T20:58:53.100Z,-3.90
2018-02-14T21:01:23.242Z,-3.80
2018-02-14T21:03:51.401Z,-3.70
2018-02-14T21:06:19.545Z,-3.70
2018-02-14T21:08:48.565Z,-3.70
2018-02-14T21:11:16.797Z,-3.70
2018-02-14T21:13:45.029Z,-3.70
2018-02-14T21:16:13.193Z,-3.80
2018-02-14T21:18:41.409Z,-3.80
2018-02-14T21:21:14.720Z,-3.80
2018-02-14T21:23:43.636Z,-3.90
2018-02-14T21:26:11.793Z,-3.90
2018-02-14T21:28:40.706Z,-4.00
2018-02-14T21:31:08.882Z,-4.00
2018-02-14T21:33:37.668Z,-4.20
2018-02-14T21:36:05.833Z,-4.10
2018-02-14T21:38:33.981Z,-4.00
2018-02-14T21:41:02.137Z,-4.00
2018-02-14T21:43:30.281Z,-4.10
2018-02-14T21:45:58.447Z,-4.20
2018-02-14T21:48:26.581Z,-4.20
2018-02-14T21:50:56.448Z,-4.20
2018-02-14T21:53:24.588Z,-4.20
2018-02-14T21:55:52.745Z,-4.10
2018-02-14T21:58:21.650Z,-4.20
2018-02-14T22:00:50.788Z,-4.20
2018-02-14T22:03:18.962Z,-4.20
2018-02-14T22:05:47.112Z,-4.30
2018-02-14T22:08:15.248Z,-4.20
2018-02-14T22:11:01.157Z,-4.50
2018-02-14T22:13:29.305Z,-4.50
2018-02-14T22:15:58.341Z,-4.50
2018-02-14T22:18:26.507Z,-4.60
2018-02-14T22:20:56.686Z,-4.50
2018-02-14T22:23:25.622Z,-4.60
2018-02-14T22:25:53.833Z,-4.60
2018-02-14T22:28:22.042Z,-4.50
2018-02-14T22:30:54.709Z,-4.60
2018-02-14T22:33:23.719Z,-4.50
2018-02-14T22:35:51.942Z,-4.60
2018-02-14T22:38:20.114Z,-4.60
2018-02-14T22:40:48.342Z,-4.60
2018-02-14T22:43:16.553Z,-4.70
2018-02-14T22:45:44.745Z,-4.60
2018-02-14T22:48:12.970Z,-4.70
2018-02-14T22:50:45.255Z,-4.80
2018-02-14T22:53:13.462Z,-4.90
2018-02-14T22:55:41.657Z,-4.90
2018-02-14T22:58:09.874Z,-4.90
2018-02-14T23:00:38.133Z,-5.00
2018-02-14T23:03:06.325Z,-5.10
2018-02-14T23:05:34.562Z,-5.30
2018-02-14T23:08:03.535Z,-5.40
2018-02-14T23:10:31.803Z,-5.50
2018-02-14T23:13:00.020Z,-5.40
2018-02-14T23:15:29.033Z,-5.30
2018-02-14T23:17:57.199Z,-5.40
2018-02-14T23:20:25.373Z,-5.30
2018-02-14T23:23:05.781Z,-5.20
2018-02-14T23:25:34.518Z,-5.10
2018-02-14T23:28:02.660Z,-5.10
2018-02-14T23:30:30.861Z,-5.10
2018-02-14T23:32:59.005Z,-5.20
2018-02-14T23:35:27.163Z,-5.20
2018-02-14T23:37:55.308Z,-5.30
2018-02-14T23:40:23.485Z,-5.30
2018-02-14T23:42:53.605Z,-5.20
2018-02-14T23:45:21.767Z,-5.40
2018-02-14T23:47:49.898Z,-5.30
2018-02-14T23:50:18.817Z,-5.30
2018-02-14T23:52:47.949Z,-5.30
2018-02-14T23:55:16.117Z,-5.30
2018-02-14T23:57:44.256Z,-5.30
